Terminal Aerodrome Forecast
Issued by NWS

Home | Current Version | Previous Version | Graphics & Text | Print | Product List | Glossary On
Versions: 1 2 3 4 5 6 7 8 9 10 11 12 13 14 15 16
335
FTUS43 KICT 271401 AAA
TAFRSL
TAF AMD
KRSL 271401Z 2714/2812 30015G22KT P6SM VCSH SCT030 BKN060
     FM271600 29017G24KT P6SM BKN035
     FM280000 30018G25KT P6SM SCT100=

USA.gov is the U.S. government's official web portal to all federal, state and local government web resources and services.